Time;durP1;ratioP1;P1;durP2;ratioP2;P2;SDS_P1;SDS_P2;PMS_P1;PMS_P2;Temp;Humidity;BMP_temperature;BMP_pressure;BME280_temperature;BME280_humidity;BME280_pressure;Samples;Min_cycle;Max_cycle;Signal;HPM_P1;HPM_P2
2022/08/22 00:00:10;;;;;;;15.75;9.63;;;;;;;;;;4977714;28;20055;-83
2022/08/22 00:03:02;;;;;;;15.75;9.32;;;;;;;;;;4983218;28;20058;-83
2022/08/22 00:06:09;;;;;;;14.98;10.10;;;;;;;;;;4977224;28;20043;-82
2022/08/22 00:09:18;;;;;;;23.02;9.93;;;;;;;;;;4976775;28;20058;-82
2022/08/22 00:12:44;;;;;;;18.38;10.38;;;;;;;;;;4976452;28;20039;-83
2022/08/22 00:15:41;;;;;;;17.73;10.25;;;;;;;;;;4982820;28;20055;-84
2022/08/22 00:18:27;;;;;;;18.70;10.15;;;;;;;;;;4983366;28;20054;-82
2022/08/22 00:21:26;;;;;;;17.20;10.65;;;;;;;;;;4982744;28;20051;-83
2022/08/22 00:24:28;;;;;;;17.35;9.68;;;;;;;;;;4983054;28;20054;-83
2022/08/22 00:27:59;;;;;;;16.15;10.05;;;;;;;;;;4975618;28;20402;-83
2022/08/22 00:31:15;;;;;;;14.63;9.40;;;;;;;;;;4954366;28;20482;-84
2022/08/22 00:34:11;;;;;;;20.75;9.88;;;;;;;;;;4953720;28;20047;-80
2022/08/22 00:37:08;;;;;;;15.07;9.55;;;;;;;;;;4982511;28;20050;-82
2022/08/22 00:40:25;;;;;;;12.40;9.10;;;;;;;;;;4976408;28;20047;-81
2022/08/22 00:43:41;;;;;;;19.00;10.05;;;;;;;;;;4975705;28;20402;-84
2022/08/22 00:46:44;;;;;;;;;;;;;;;;;;4976408;28;20051;-82
2022/08/22 00:49:59;;;;;;;11.70;9.52;;;;;;;;;;4982457;28;20349;-82
2022/08/22 00:52:59;;;;;;;12.93;9.43;;;;;;;;;;4982498;28;20046;-81
2022/08/22 00:55:51;;;;;;;15.88;8.23;;;;;;;;;;4976065;28;20054;-81
2022/08/22 00:59:03;;;;;;;10.52;8.45;;;;;;;;;;4975798;28;20054;-80
2022/08/22 01:02:26;;;;;;;10.80;8.80;;;;;;;;;;4975746;28;20050;-83
2022/08/22 01:05:45;;;;;;;13.13;8.75;;;;;;;;;;4982238;28;20430;-82
2022/08/22 01:08:58;;;;;;;16.05;8.85;;;;;;;;;;4982530;28;20051;-81
2022/08/22 01:11:56;;;;;;;12.25;8.35;;;;;;;;;;4981742;28;20046;-82
2022/08/22 01:14:52;;;;;;;14.48;8.85;;;;;;;;;;4982797;28;20043;-80
2022/08/22 01:18:01;;;;;;;17.05;9.15;;;;;;;;;;4975676;28;20490;-81
2022/08/22 01:21:15;;;;;;;13.45;8.60;;;;;;;;;;4978378;28;20046;-82
2022/08/22 01:24:19;;;;;;;10.45;8.23;;;;;;;;;;4977935;28;20038;-80
2022/08/22 01:27:30;;;;;;;16.67;9.25;;;;;;;;;;4986667;28;20398;-80
2022/08/22 01:30:31;;;;;;;13.75;9.25;;;;;;;;;;4983821;28;20402;-81
2022/08/22 01:33:45;;;;;;;14.10;9.10;;;;;;;;;;4981825;28;20054;-83
2022/08/22 01:36:58;;;;;;;12.85;8.85;;;;;;;;;;4916568;28;20046;-82
2022/08/22 01:40:15;;;;;;;15.65;8.88;;;;;;;;;;4974918;28;20066;-82
2022/08/22 01:43:20;;;;;;;11.90;8.40;;;;;;;;;;4981596;28;20050;-80
2022/08/22 01:46:21;;;;;;;12.27;8.48;;;;;;;;;;4981444;28;20051;-81
2022/08/22 01:49:19;;;;;;;13.63;8.57;;;;;;;;;;4981557;28;20051;-81
2022/08/22 01:52:41;;;;;;;12.23;8.88;;;;;;;;;;4974842;28;20050;-83
2022/08/22 01:56:05;;;;;;;14.95;9.40;;;;;;;;;;4981437;28;20042;-82
2022/08/22 01:59:07;;;;;;;17.10;9.70;;;;;;;;;;4964967;28;20050;-83
2022/08/22 02:02:18;;;;;;;19.70;10.10;;;;;;;;;;4975218;28;20059;-82
2022/08/22 02:05:15;;;;;;;15.52;9.20;;;;;;;;;;4974654;28;20044;-82
2022/08/22 02:08:13;;;;;;;14.93;9.15;;;;;;;;;;4981451;28;20051;-84
2022/08/22 02:11:03;;;;;;;15.30;8.65;;;;;;;;;;4981815;28;20050;-82
2022/08/22 02:14:11;;;;;;;17.13;9.10;;;;;;;;;;4980843;28;20042;-80
2022/08/22 02:17:11;;;;;;;13.68;8.48;;;;;;;;;;4974589;28;20051;-82
2022/08/22 02:20:02;;;;;;;14.52;9.27;;;;;;;;;;4974625;28;20047;-82
2022/08/22 02:23:19;;;;;;;13.48;7.95;;;;;;;;;;4981663;28;20046;-82
2022/08/22 02:26:11;;;;;;;13.02;8.55;;;;;;;;;;4981280;28;20051;-80
2022/08/22 02:29:21;;;;;;;15.23;8.50;;;;;;;;;;4974579;28;20039;-79
2022/08/22 02:32:15;;;;;;;14.77;8.77;;;;;;;;;;4974850;28;20050;-82
2022/08/22 02:35:06;;;;;;;;;;;;;;;;;;4974869;28;20047;-81
2022/08/22 02:38:30;;;;;;;16.00;8.30;;;;;;;;;;4980858;28;19918;-82
2022/08/22 02:41:44;;;;;;;11.75;8.07;;;;;;;;;;4980779;28;20050;-84
2022/08/22 02:44:41;;;;;;;13.07;8.48;;;;;;;;;;4974754;28;20055;-81
2022/08/22 02:48:00;;;;;;;14.27;9.10;;;;;;;;;;4980607;28;20050;-82
2022/08/22 02:51:23;;;;;;;14.02;8.63;;;;;;;;;;4974750;28;20058;-83
2022/08/22 02:54:30;;;;;;;17.27;9.50;;;;;;;;;;4978141;28;20047;-81
2022/08/22 02:57:27;;;;;;;16.30;9.70;;;;;;;;;;4977828;28;20042;-83
2022/08/22 03:00:20;;;;;;;15.50;9.55;;;;;;;;;;4979012;28;20047;-81
2022/08/22 03:03:26;;;;;;;15.00;10.07;;;;;;;;;;4984151;28;20062;-82
2022/08/22 03:06:37;;;;;;;16.10;10.48;;;;;;;;;;4977864;28;20410;-82
2022/08/22 03:09:29;;;;;;;16.25;10.07;;;;;;;;;;4977494;28;20038;-81
2022/08/22 03:12:38;;;;;;;19.20;10.02;;;;;;;;;;4977785;28;20406;-81
2022/08/22 03:15:52;;;;;;;18.83;10.38;;;;;;;;;;4990426;28;20046;-81
2022/08/22 03:19:18;;;;;;;15.63;9.88;;;;;;;;;;5004177;28;20497;-81
2022/08/22 03:22:28;;;;;;;16.67;9.77;;;;;;;;;;4984011;28;20050;-81
2022/08/22 03:25:44;;;;;;;17.55;9.80;;;;;;;;;;4988123;28;20046;-83
2022/08/22 03:28:37;;;;;;;15.93;10.05;;;;;;;;;;4997361;28;20046;-82
2022/08/22 03:31:25;;;;;;;16.58;10.70;;;;;;;;;;5000590;28;20046;-83
2022/08/22 03:34:25;;;;;;;20.58;11.63;;;;;;;;;;4984857;28;20047;-82
2022/08/22 03:37:36;;;;;;;18.63;11.27;;;;;;;;;;4994213;28;20042;-85
2022/08/22 03:41:01;;;;;;;18.30;11.35;;;;;;;;;;4995010;28;20042;-83
2022/08/22 03:43:57;;;;;;;17.58;11.43;;;;;;;;;;4992240;28;20051;-81
2022/08/22 03:47:33;;;;;;;17.77;10.75;;;;;;;;;;4996698;28;20042;-81
2022/08/22 03:50:51;;;;;;;17.48;10.77;;;;;;;;;;4972570;28;20042;-81
2022/08/22 03:54:17;;;;;;;15.35;10.40;;;;;;;;;;4990596;28;20050;-80
2022/08/22 03:57:16;;;;;;;16.95;10.55;;;;;;;;;;4983522;28;20406;-83
2022/08/22 04:00:33;;;;;;;16.50;10.68;;;;;;;;;;4976248;28;20051;-81
2022/08/22 04:03:34;;;;;;;14.95;10.02;;;;;;;;;;4984742;28;20050;-81
2022/08/22 04:06:41;;;;;;;15.75;10.07;;;;;;;;;;4984261;28;20046;-82
2022/08/22 04:10:06;;;;;;;18.73;11.68;;;;;;;;;;4982954;28;20042;-81
2022/08/22 04:13:10;;;;;;;15.60;10.07;;;;;;;;;;4982428;28;20063;-82
2022/08/22 04:16:32;;;;;;;17.40;10.75;;;;;;;;;;4982700;28;20046;-81
2022/08/22 04:19:39;;;;;;;16.25;11.27;;;;;;;;;;4982798;28;20042;-83
2022/08/22 04:22:46;;;;;;;15.88;10.93;;;;;;;;;;4983332;28;20046;-82
2022/08/22 04:25:46;;;;;;;19.67;10.93;;;;;;;;;;4982573;28;20485;-83
2022/08/22 04:28:41;;;;;;;17.65;10.27;;;;;;;;;;4983065;28;20054;-85
2022/08/22 04:31:32;;;;;;;17.48;10.77;;;;;;;;;;4983681;28;20394;-81
2022/08/22 04:34:30;;;;;;;16.80;10.00;;;;;;;;;;4982198;28;20055;-82
2022/08/22 04:37:50;;;;;;;14.40;10.25;;;;;;;;;;4982791;28;20059;-82
2022/08/22 04:40:46;;;;;;;17.95;10.30;;;;;;;;;;4976070;28;20035;-82
2022/08/22 04:43:43;;;;;;;17.75;10.68;;;;;;;;;;4976431;28;20051;-83
2022/08/22 04:46:48;;;;;;;19.10;10.68;;;;;;;;;;4981995;28;20043;-83
2022/08/22 04:49:55;;;;;;;21.20;10.07;;;;;;;;;;4982514;28;20394;-83
2022/08/22 04:52:47;;;;;;;14.32;9.93;;;;;;;;;;4982664;28;20046;-82
2022/08/22 04:56:21;;;;;;;17.60;10.55;;;;;;;;;;4982027;28;20043;-82
2022/08/22 04:59:10;;;;;;;14.20;9.75;;;;;;;;;;4968340;28;20071;-82
2022/08/22 05:01:59;;;;;;;13.85;9.10;;;;;;;;;;4975428;28;20406;-82
2022/08/22 05:04:49;;;;;;;20.67;9.05;;;;;;;;;;4975895;28;20058;-81
2022/08/22 05:07:38;;;;;;;18.58;9.38;;;;;;;;;;4967149;28;20043;-82
2022/08/22 05:10:27;;;;;;;13.05;9.80;;;;;;;;;;4982169;28;20058;-82
2022/08/22 05:13:28;;;;;;;12.65;9.32;;;;;;;;;;4981685;28;20047;-81
2022/08/22 05:16:23;;;;;;;14.82;9.48;;;;;;;;;;4981685;28;20406;-84
2022/08/22 05:19:18;;;;;;;16.25;9.65;;;;;;;;;;4981887;28;20050;-83
2022/08/22 05:22:09;;;;;;;17.35;10.00;;;;;;;;;;4975506;28;20051;-83
2022/08/22 05:25:17;;;;;;;17.92;8.82;;;;;;;;;;4982418;28;20051;-83
2022/08/22 05:28:14;;;;;;;13.55;8.18;;;;;;;;;;4981871;28;20043;-82
2022/08/22 05:31:04;;;;;;;12.20;8.70;;;;;;;;;;4982154;28;20047;-82
2022/08/22 05:33:55;;;;;;;15.95;10.02;;;;;;;;;;4981964;28;20047;-82
2022/08/22 05:36:46;;;;;;;14.48;9.15;;;;;;;;;;4981239;28;20054;-82
2022/08/22 05:39:32;;;;;;;14.80;9.07;;;;;;;;;;4967062;28;20080;-83
2022/08/22 05:42:26;;;;;;;13.55;9.13;;;;;;;;;;4981606;28;20054;-85
2022/08/22 05:45:12;;;;;;;15.25;9.65;;;;;;;;;;4981547;28;20042;-83
2022/08/22 05:48:10;;;;;;;14.07;8.43;;;;;;;;;;4975251;28;20046;-82
2022/08/22 05:51:02;;;;;;;15.95;8.98;;;;;;;;;;4974497;28;20486;-81
2022/08/22 05:53:55;;;;;;;13.07;9.27;;;;;;;;;;4981315;28;20046;-83
2022/08/22 05:56:46;;;;;;;15.90;9.90;;;;;;;;;;5000469;28;20057;-81
2022/08/22 05:59:34;;;;;;;15.18;10.18;;;;;;;;;;4996939;28;20508;-83
2022/08/22 06:02:32;;;;;;;15.23;9.23;;;;;;;;;;5001773;28;20046;-85
2022/08/22 06:05:24;;;;;;;11.10;8.60;;;;;;;;;;4994594;28;20050;-82
2022/08/22 06:08:22;;;;;;;14.10;8.65;;;;;;;;;;4989364;28;20413;-83
2022/08/22 06:11:20;;;;;;;12.15;8.65;;;;;;;;;;4994871;28;20398;-83
2022/08/22 06:14:12;;;;;;;14.45;8.88;;;;;;;;;;5000334;28;20051;-83
2022/08/22 06:17:26;;;;;;;12.90;8.30;;;;;;;;;;4998485;28;20050;-82
2022/08/22 06:20:22;;;;;;;18.15;10.63;;;;;;;;;;4996888;28;20046;-82
2022/08/22 06:23:13;;;;;;;13.68;9.05;;;;;;;;;;4990328;28;20047;-83
2022/08/22 06:26:00;;;;;;;13.73;9.35;;;;;;;;;;4983671;28;20478;-83
2022/08/22 06:28:48;;;;;;;11.52;7.32;;;;;;;;;;4978357;28;20046;-83
2022/08/22 06:31:41;;;;;;;11.15;7.88;;;;;;;;;;4985525;28;20039;-82
2022/08/22 06:34:35;;;;;;;11.43;7.97;;;;;;;;;;4995067;28;20478;-82
2022/08/22 06:37:30;;;;;;;11.10;7.45;;;;;;;;;;4997767;28;20046;-82
2022/08/22 06:40:17;;;;;;;10.98;7.50;;;;;;;;;;5004471;28;20046;-83
2022/08/22 06:43:03;;;;;;;10.75;7.07;;;;;;;;;;5005493;28;20046;-79
2022/08/22 06:45:51;;;;;;;10.55;7.25;;;;;;;;;;5011266;28;20046;-78
2022/08/22 06:48:37;;;;;;;12.98;7.90;;;;;;;;;;5003608;28;20477;-80
2022/08/22 06:51:25;;;;;;;9.60;7.05;;;;;;;;;;5000061;28;20038;-81
2022/08/22 06:54:20;;;;;;;14.52;8.02;;;;;;;;;;4994511;28;20050;-82
2022/08/22 06:57:31;;;;;;;8.82;7.07;;;;;;;;;;5003164;28;20046;-80
2022/08/22 07:00:18;;;;;;;7.43;6.43;;;;;;;;;;5001655;28;20062;-81
2022/08/22 07:03:26;;;;;;;10.30;7.00;;;;;;;;;;4991088;28;20042;-86
2022/08/22 07:06:18;;;;;;;14.13;6.90;;;;;;;;;;4987659;28;20047;-83
2022/08/22 07:09:05;;;;;;;7.43;6.60;;;;;;;;;;4988883;28;20394;-84
2022/08/22 07:11:52;;;;;;;8.18;6.82;;;;;;;;;;4995489;28;20046;-79
2022/08/22 07:14:48;;;;;;;8.73;6.93;;;;;;;;;;4999704;28;20042;-83
2022/08/22 07:17:34;;;;;;;8.18;6.35;;;;;;;;;;4994502;28;20050;-80
2022/08/22 07:20:27;;;;;;;9.63;6.35;;;;;;;;;;4995049;28;20418;-80
2022/08/22 07:23:31;;;;;;;8.73;7.00;;;;;;;;;;4983780;28;20047;-81
2022/08/22 07:26:46;;;;;;;9.25;6.20;;;;;;;;;;4979645;28;20039;-81
2022/08/22 07:29:52;;;;;;;9.55;6.30;;;;;;;;;;5001147;28;20054;-82
2022/08/22 07:32:47;;;;;;;7.35;5.70;;;;;;;;;;4983491;28;20054;-82
2022/08/22 07:35:40;;;;;;;9.23;6.15;;;;;;;;;;4987276;28;20411;-81
2022/08/22 07:38:41;;;;;;;8.18;6.22;;;;;;;;;;4995789;28;20050;-82
2022/08/22 07:41:44;;;;;;;7.30;5.90;;;;;;;;;;4983439;28;20054;-82
2022/08/22 07:44:43;;;;;;;12.73;6.60;;;;;;;;;;4976873;28;20047;-82
2022/08/22 07:48:11;;;;;;;7.30;5.80;;;;;;;;;;4986746;28;20050;-82
2022/08/22 07:50:58;;;;;;;7.13;5.47;;;;;;;;;;4994693;28;20046;-81
2022/08/22 07:53:58;;;;;;;7.40;5.97;;;;;;;;;;4983201;28;20047;-83
2022/08/22 07:56:55;;;;;;;6.90;5.53;;;;;;;;;;4983040;28;20474;-80
2022/08/22 07:59:51;;;;;;;7.03;5.95;;;;;;;;;;4979613;28;20046;-81
2022/08/22 08:02:44;;;;;;;9.27;6.25;;;;;;;;;;4995503;28;20410;-81
2022/08/22 08:05:34;;;;;;;6.50;5.80;;;;;;;;;;4993383;28;20038;-81
2022/08/22 08:08:37;;;;;;;9.75;5.45;;;;;;;;;;4974897;28;20047;-81
2022/08/22 08:11:25;;;;;;;8.32;5.88;;;;;;;;;;4999166;28;20046;-81
2022/08/22 08:14:13;;;;;;;5.70;5.10;;;;;;;;;;4994923;28;20485;-79
2022/08/22 08:17:25;;;;;;;6.93;5.57;;;;;;;;;;4986930;28;20409;-80
2022/08/22 08:20:19;;;;;;;6.70;5.32;;;;;;;;;;4998014;28;20042;-81
2022/08/22 08:23:10;;;;;;;8.68;5.50;;;;;;;;;;5001830;28;20373;-80
2022/08/22 08:26:03;;;;;;;8.52;5.57;;;;;;;;;;4999993;28;20486;-81
2022/08/22 08:28:57;;;;;;;10.23;5.75;;;;;;;;;;4992604;28;20043;-80
2022/08/22 08:31:51;;;;;;;7.15;5.63;;;;;;;;;;4981976;28;20051;-87
2022/08/22 08:34:41;;;;;;;;;;;;;;;;;;4980429;28;20039;-82
2022/08/22 08:37:39;;;;;;;7.30;5.57;;;;;;;;;;4988873;28;20258;-80
2022/08/22 08:40:31;;;;;;;8.40;6.07;;;;;;;;;;4993566;28;20394;-82
2022/08/22 08:43:45;;;;;;;6.68;5.78;;;;;;;;;;4987328;28;20047;-83
2022/08/22 08:46:50;;;;;;;7.22;5.85;;;;;;;;;;4996379;28;20474;-83
2022/08/22 08:49:54;;;;;;;8.20;5.75;;;;;;;;;;4985151;28;20038;-84
2022/08/22 08:52:52;;;;;;;6.20;5.60;;;;;;;;;;4999288;28;20046;-82
2022/08/22 08:55:52;;;;;;;8.85;6.25;;;;;;;;;;5001975;28;20073;-82
2022/08/22 08:58:53;;;;;;;8.20;6.13;;;;;;;;;;4994146;28;20401;-81
2022/08/22 09:02:04;;;;;;;8.13;6.38;;;;;;;;;;4982268;28;20054;-82
2022/08/22 09:05:07;;;;;;;6.93;5.80;;;;;;;;;;4979755;28;20047;-83
2022/08/22 09:08:02;;;;;;;8.23;6.30;;;;;;;;;;4987320;28;20035;-83
2022/08/22 09:10:50;;;;;;;;;;;;;;;;;;4984873;28;20047;-83
2022/08/22 09:13:42;;;;;;;8.10;5.78;;;;;;;;;;4981374;28;19914;-82
2022/08/22 09:16:52;;;;;;;9.10;6.68;;;;;;;;;;4988751;28;20394;-82
2022/08/22 09:19:53;;;;;;;8.40;6.40;;;;;;;;;;4994027;28;20042;-82
2022/08/22 09:23:16;;;;;;;8.32;6.82;;;;;;;;;;5003274;28;20421;-80
2022/08/22 09:26:21;;;;;;;7.45;6.30;;;;;;;;;;4980889;28;20489;-79
2022/08/22 09:29:28;;;;;;;8.13;6.18;;;;;;;;;;5001968;28;20042;-79
2022/08/22 09:32:14;;;;;;;7.57;5.88;;;;;;;;;;5001169;28;20490;-85
2022/08/22 09:35:17;;;;;;;8.38;5.50;;;;;;;;;;5000474;28;20038;-82
2022/08/22 09:38:23;;;;;;;6.22;5.63;;;;;;;;;;5000943;28;20062;-82
2022/08/22 09:41:36;;;;;;;6.93;6.13;;;;;;;;;;4992362;28;20059;-81
2022/08/22 09:45:07;;;;;;;6.80;6.10;;;;;;;;;;4979320;28;20050;-82
2022/08/22 09:48:14;;;;;;;8.75;6.78;;;;;;;;;;4975738;28;20051;-83
2022/08/22 09:51:15;;;;;;;6.93;6.20;;;;;;;;;;4999991;28;20046;-80
2022/08/22 09:54:09;;;;;;;7.32;6.00;;;;;;;;;;4994220;28;20485;-82
2022/08/22 09:57:08;;;;;;;;;;;;;;;;;;4989750;28;20047;-80
2022/08/22 10:00:14;;;;;;;10.75;6.75;;;;;;;;;;4985498;28;20238;-80
2022/08/22 10:03:14;;;;;;;7.53;6.43;;;;;;;;;;4992291;28;20055;-80
2022/08/22 10:06:12;;;;;;;6.93;5.63;;;;;;;;;;4992926;28;20046;-80
2022/08/22 10:09:15;;;;;;;6.53;5.15;;;;;;;;;;4993435;28;20482;-81
2022/08/22 10:12:15;;;;;;;7.85;5.45;;;;;;;;;;4992806;28;20355;-81
2022/08/22 10:15:17;;;;;;;6.22;5.32;;;;;;;;;;4992198;28;20405;-81
2022/08/22 10:18:36;;;;;;;7.10;5.88;;;;;;;;;;4992985;28;20055;-81
2022/08/22 10:21:43;;;;;;;7.18;5.70;;;;;;;;;;4994194;28;20042;-81
2022/08/22 10:24:41;;;;;;;8.77;6.30;;;;;;;;;;4973301;28;20050;-81
2022/08/22 10:27:29;;;;;;;10.77;5.95;;;;;;;;;;4993160;28;20050;-81
2022/08/22 10:30:24;;;;;;;8.93;7.22;;;;;;;;;;4991957;28;20042;-81
2022/08/22 10:33:42;;;;;;;8.68;6.85;;;;;;;;;;4993449;28;20058;-81
2022/08/22 10:36:59;;;;;;;8.48;6.40;;;;;;;;;;4989404;28;20494;-80
2022/08/22 10:40:07;;;;;;;12.80;6.63;;;;;;;;;;5000258;28;20050;-81
2022/08/22 10:42:57;;;;;;;8.07;6.18;;;;;;;;;;4980825;28;20042;-81
2022/08/22 10:45:51;;;;;;;6.93;6.13;;;;;;;;;;4996873;28;20050;-80
2022/08/22 10:48:36;;;;;;;;;;;;;;;;;;4996047;28;20050;-82
2022/08/22 10:51:30;;;;;;;9.25;6.65;;;;;;;;;;4997830;28;19918;-82
2022/08/22 10:54:39;;;;;;;9.32;6.53;;;;;;;;;;4999603;28;20047;-81
2022/08/22 10:57:50;;;;;;;9.82;7.03;;;;;;;;;;4998564;28;20054;-79
2022/08/22 11:00:53;;;;;;;11.27;7.05;;;;;;;;;;4993531;28;20386;-79
2022/08/22 11:03:44;;;;;;;9.68;6.70;;;;;;;;;;4994084;28;20501;-79
2022/08/22 11:06:55;;;;;;;8.23;6.82;;;;;;;;;;4999692;28;20050;-80
2022/08/22 11:09:54;;;;;;;10.90;5.68;;;;;;;;;;4994404;28;20402;-81
2022/08/22 11:12:47;;;;;;;6.18;4.57;;;;;;;;;;5003476;28;20050;-80
2022/08/22 11:15:54;;;;;;;6.37;5.03;;;;;;;;;;5003376;28;20405;-82
2022/08/22 11:19:21;;;;;;;8.50;5.60;;;;;;;;;;4996669;28;20050;-81
2022/08/22 11:22:27;;;;;;;6.05;5.18;;;;;;;;;;4924174;29;20044;-82
2022/08/22 11:25:25;;;;;;;7.07;5.05;;;;;;;;;;4924343;29;20044;-81
2022/08/22 11:28:39;;;;;;;7.18;5.22;;;;;;;;;;4996386;28;20382;-81
2022/08/22 11:31:43;;;;;;;8.75;5.40;;;;;;;;;;5003371;28;20050;-80
2022/08/22 11:34:42;;;;;;;8.90;5.25;;;;;;;;;;5002466;28;20050;-82
2022/08/22 11:37:28;;;;;;;7.10;5.30;;;;;;;;;;5003261;28;20054;-80
2022/08/22 11:40:35;;;;;;;5.53;4.85;;;;;;;;;;5003148;28;20386;-83
2022/08/22 11:43:47;;;;;;;7.28;5.78;;;;;;;;;;5002958;28;20046;-83
2022/08/22 11:46:41;;;;;;;6.32;5.43;;;;;;;;;;4996260;28;20091;-81
2022/08/22 11:49:49;;;;;;;5.32;4.45;;;;;;;;;;5002414;28;20038;-81
2022/08/22 11:53:03;;;;;;;5.90;5.00;;;;;;;;;;5002601;28;20046;-79
2022/08/22 11:56:13;;;;;;;6.60;4.57;;;;;;;;;;5002693;28;20046;-80
2022/08/22 11:59:21;;;;;;;8.88;5.60;;;;;;;;;;5002636;28;20054;-80
2022/08/22 12:02:28;;;;;;;5.63;4.57;;;;;;;;;;5005388;28;20050;-79
2022/08/22 12:05:48;;;;;;;5.78;5.00;;;;;;;;;;5006368;28;20398;-79
2022/08/22 12:08:32;;;;;;;6.40;5.60;;;;;;;;;;4992486;28;20490;-81
2022/08/22 12:11:30;;;;;;;8.30;6.20;;;;;;;;;;5002117;28;20050;-81
2022/08/22 12:14:32;;;;;;;8.00;5.30;;;;;;;;;;4996172;28;20050;-80
2022/08/22 12:17:20;;;;;;;5.85;4.90;;;;;;;;;;5002474;28;20427;-80
2022/08/22 12:20:42;;;;;;;5.97;5.00;;;;;;;;;;5002544;28;20046;-80
2022/08/22 12:23:58;;;;;;;10.30;5.57;;;;;;;;;;5001736;28;20046;-82
2022/08/22 12:26:49;;;;;;;6.32;5.38;;;;;;;;;;5002556;28;20050;-78
2022/08/22 12:30:07;;;;;;;5.95;5.20;;;;;;;;;;4995155;28;20043;-79
2022/08/22 12:33:19;;;;;;;6.20;5.60;;;;;;;;;;4987833;28;20054;-80
2022/08/22 12:36:26;;;;;;;8.65;4.85;;;;;;;;;;4995649;28;20054;-80
2022/08/22 12:39:23;;;;;;;5.90;5.20;;;;;;;;;;5002251;28;20066;-79
2022/08/22 12:42:29;;;;;;;8.32;6.22;;;;;;;;;;5002426;28;20046;-80
2022/08/22 12:45:14;;;;;;;4.72;4.20;;;;;;;;;;5001586;28;20055;-80
2022/08/22 12:48:18;;;;;;;6.00;4.05;;;;;;;;;;5001898;28;20058;-81
2022/08/22 12:51:43;;;;;;;6.15;4.28;;;;;;;;;;4994588;28;20046;-82
2022/08/22 12:54:34;;;;;;;6.53;4.97;;;;;;;;;;5001732;28;20050;-81
2022/08/22 12:57:50;;;;;;;6.82;4.90;;;;;;;;;;5001354;28;20425;-82
2022/08/22 13:00:39;;;;;;;5.22;4.53;;;;;;;;;;5001510;28;20050;-82
2022/08/22 13:03:39;;;;;;;8.45;5.70;;;;;;;;;;4994604;28;20056;-79
2022/08/22 13:06:36;;;;;;;7.05;5.40;;;;;;;;;;5001461;28;20050;-81
2022/08/22 13:09:29;;;;;;;6.18;5.38;;;;;;;;;;5001188;28;20051;-82
2022/08/22 13:12:20;;;;;;;5.55;4.82;;;;;;;;;;4994694;28;20058;-80
2022/08/22 13:15:30;;;;;;;5.72;4.38;;;;;;;;;;5001455;28;20050;-80
2022/08/22 13:18:24;;;;;;;7.53;5.43;;;;;;;;;;4994687;28;20050;-83
2022/08/22 13:21:13;;;;;;;7.68;6.05;;;;;;;;;;4986103;28;20477;-80
2022/08/22 13:24:05;;;;;;;6.72;5.18;;;;;;;;;;5001276;28;20054;-82
2022/08/22 13:27:01;;;;;;;4.72;4.22;;;;;;;;;;5001232;28;20050;-80
2022/08/22 13:29:46;;;;;;;6.07;4.53;;;;;;;;;;4994492;28;20046;-81
2022/08/22 13:32:45;;;;;;;9.38;5.22;;;;;;;;;;5000607;28;20046;-81
2022/08/22 13:35:43;;;;;;;8.00;5.53;;;;;;;;;;5000679;28;20042;-80
2022/08/22 13:38:37;;;;;;;6.30;5.22;;;;;;;;;;5000786;28;20413;-79
2022/08/22 13:41:35;;;;;;;5.32;4.82;;;;;;;;;;5000830;28;20046;-79
2022/08/22 13:44:27;;;;;;;5.97;4.88;;;;;;;;;;5000873;28;20049;-78
2022/08/22 13:47:20;;;;;;;5.93;4.00;;;;;;;;;;5000429;28;20050;-83
2022/08/22 13:50:15;;;;;;;5.03;3.85;;;;;;;;;;5000873;28;20050;-80
2022/08/22 13:53:11;;;;;;;4.13;3.67;;;;;;;;;;5000064;28;20042;-82
2022/08/22 13:56:06;;;;;;;4.72;3.63;;;;;;;;;;5000506;28;20490;-79
2022/08/22 13:59:00;;;;;;;4.72;3.55;;;;;;;;;;4998294;28;20043;-81
2022/08/22 14:02:02;;;;;;;;;;;;;;;;;;5001490;28;20050;-81
2022/08/22 14:04:51;;;;;;;4.10;3.47;;;;;;;;;;5000463;28;20380;-83
2022/08/22 14:07:46;;;;;;;5.82;4.20;;;;;;;;;;5000599;28;20046;-83
2022/08/22 14:10:36;;;;;;;5.47;3.92;;;;;;;;;;5000580;28;20047;-83
2022/08/22 14:13:40;;;;;;;4.75;3.50;;;;;;;;;;4999969;28;20046;-80
2022/08/22 14:16:46;;;;;;;4.53;3.70;;;;;;;;;;5001008;28;20050;-82
2022/08/22 14:19:35;;;;;;;5.05;3.67;;;;;;;;;;5000389;28;20086;-80
2022/08/22 14:22:23;;;;;;;5.70;3.40;;;;;;;;;;5000461;28;20050;-81
2022/08/22 14:25:21;;;;;;;4.25;3.58;;;;;;;;;;5000475;28;20047;-81
2022/08/22 14:28:20;;;;;;;4.03;3.33;;;;;;;;;;5000382;28;20393;-81
2022/08/22 14:31:10;;;;;;;3.80;3.40;;;;;;;;;;5000739;28;20401;-81
2022/08/22 14:34:01;;;;;;;5.28;3.45;;;;;;;;;;5000514;28;20042;-82
2022/08/22 14:36:58;;;;;;;4.15;3.75;;;;;;;;;;5000480;28;20050;-80
2022/08/22 14:39:52;;;;;;;6.65;3.92;;;;;;;;;;4987285;28;20054;-81
2022/08/22 14:42:57;;;;;;;5.07;4.25;;;;;;;;;;5003439;28;20398;-80
2022/08/22 14:45:52;;;;;;;7.40;4.88;;;;;;;;;;5006593;28;20050;-79
2022/08/22 14:49:00;;;;;;;8.35;4.50;;;;;;;;;;4999090;28;20046;-81
2022/08/22 14:51:58;;;;;;;5.32;4.32;;;;;;;;;;4989561;28;20042;-81
2022/08/22 14:54:43;;;;;;;31.90;5.55;;;;;;;;;;5004090;28;20046;-81
2022/08/22 14:57:29;;;;;;;5.32;4.63;;;;;;;;;;5003796;28;20054;-80
2022/08/22 15:00:28;;;;;;;6.75;4.82;;;;;;;;;;4998802;28;20050;-80
2022/08/22 15:03:22;;;;;;;5.40;4.78;;;;;;;;;;4997565;28;20046;-81
2022/08/22 15:06:11;;;;;;;5.57;4.60;;;;;;;;;;5004148;28;20054;-80
2022/08/22 15:08:59;;;;;;;4.93;4.43;;;;;;;;;;5003381;28;20046;-81
2022/08/22 15:11:47;;;;;;;5.68;5.03;;;;;;;;;;5003422;28;20050;-82
2022/08/22 15:14:35;;;;;;;6.55;5.57;;;;;;;;;;5003603;28;20046;-81
2022/08/22 15:17:44;;;;;;;7.18;6.47;;;;;;;;;;5003243;28;20054;-81
2022/08/22 15:20:36;;;;;;;9.40;6.82;;;;;;;;;;5000110;28;20046;-82
2022/08/22 15:23:23;;;;;;;8.23;7.10;;;;;;;;;;4985021;28;20058;-81
2022/08/22 15:26:16;;;;;;;8.05;7.20;;;;;;;;;;4987465;28;20043;-80
2022/08/22 15:29:16;;;;;;;8.60;7.30;;;;;;;;;;5002887;28;20476;-80
2022/08/22 15:32:02;;;;;;;11.10;7.65;;;;;;;;;;4999087;28;20425;-80
2022/08/22 15:34:58;;;;;;;8.70;7.82;;;;;;;;;;4994649;28;20474;-83
2022/08/22 15:38:24;;;;;;;10.02;8.00;;;;;;;;;;4996527;28;20035;-83
2022/08/22 15:41:29;;;;;;;12.07;7.50;;;;;;;;;;5003827;28;20054;-82
2022/08/22 15:44:21;;;;;;;9.40;8.40;;;;;;;;;;5002753;28;20046;-82
2022/08/22 15:47:21;;;;;;;9.68;8.68;;;;;;;;;;4996689;28;20058;-80
2022/08/22 15:50:12;;;;;;;13.73;8.95;;;;;;;;;;5001642;28;20401;-82
2022/08/22 15:53:03;;;;;;;10.60;9.55;;;;;;;;;;5002793;28;20046;-82
2022/08/22 15:56:18;;;;;;;11.02;9.93;;;;;;;;;;5002603;28;20046;-80
2022/08/22 15:59:33;;;;;;;13.85;9.57;;;;;;;;;;4994474;28;20042;-79
2022/08/22 16:02:52;;;;;;;13.82;12.05;;;;;;;;;;5002753;28;20046;-80
2022/08/22 16:05:49;;;;;;;13.73;10.73;;;;;;;;;;5002137;28;20409;-81
2022/08/22 16:08:51;;;;;;;14.57;11.65;;;;;;;;;;5002189;28;20046;-81
2022/08/22 16:11:39;;;;;;;14.20;11.82;;;;;;;;;;5002369;28;20046;-80
2022/08/22 16:14:34;;;;;;;13.40;10.23;;;;;;;;;;5002139;28;20046;-82
2022/08/22 16:17:28;;;;;;;18.30;9.63;;;;;;;;;;4997912;28;20042;-80
2022/08/22 16:20:14;;;;;;;;;;;;;;;;;;5000319;28;20118;-82
2022/08/22 16:23:02;;;;;;;11.52;10.25;;;;;;;;;;5002345;28;19913;-81
2022/08/22 16:25:51;;;;;;;11.93;10.73;;;;;;;;;;4995739;28;20050;-82
2022/08/22 16:28:48;;;;;;;13.13;11.15;;;;;;;;;;5000584;28;20050;-82
2022/08/22 16:31:41;;;;;;;12.27;10.45;;;;;;;;;;4991207;28;20042;-81
2022/08/22 16:34:35;;;;;;;11.30;10.10;;;;;;;;;;5001388;28;20046;-82
2022/08/22 16:37:46;;;;;;;14.73;11.38;;;;;;;;;;4995493;28;20046;-82
2022/08/22 16:40:45;;;;;;;13.05;11.20;;;;;;;;;;5002691;28;20050;-81
2022/08/22 16:43:32;;;;;;;13.57;11.40;;;;;;;;;;4995980;28;20058;-81
2022/08/22 16:46:36;;;;;;;11.65;10.45;;;;;;;;;;5001209;28;20039;-82
2022/08/22 16:49:29;;;;;;;12.27;10.88;;;;;;;;;;4991691;28;20071;-80
2022/08/22 16:52:24;;;;;;;12.90;10.38;;;;;;;;;;4987038;28;20042;-82
2022/08/22 16:55:28;;;;;;;15.10;11.10;;;;;;;;;;4974864;28;20047;-80
2022/08/22 16:58:41;;;;;;;12.63;10.15;;;;;;;;;;4994567;28;20046;-81
2022/08/22 17:01:39;;;;;;;16.98;10.68;;;;;;;;;;4994965;28;20058;-83
2022/08/22 17:05:18;;;;;;;11.52;10.32;;;;;;;;;;4989982;28;20050;-79
2022/08/22 17:08:30;;;;;;;11.45;9.90;;;;;;;;;;4915425;28;20139;-79
2022/08/22 17:12:08;;;;;;;11.63;10.00;;;;;;;;;;4974990;28;20046;-82
2022/08/22 17:15:00;;;;;;;12.00;10.75;;;;;;;;;;4975159;28;20039;-80
2022/08/22 17:18:10;;;;;;;15.25;10.63;;;;;;;;;;4997480;28;20401;-81
2022/08/22 17:21:09;;;;;;;14.40;11.75;;;;;;;;;;5001535;28;20398;-83
2022/08/22 17:24:31;;;;;;;13.95;10.63;;;;;;;;;;5002909;28;20050;-83
2022/08/22 17:27:33;;;;;;;14.25;10.35;;;;;;;;;;5000606;28;20034;-80
2022/08/22 17:30:31;;;;;;;11.25;10.05;;;;;;;;;;4999748;28;20043;-83
2022/08/22 17:33:49;;;;;;;12.70;10.50;;;;;;;;;;4991218;28;20470;-82
2022/08/22 17:36:37;;;;;;;12.65;10.75;;;;;;;;;;4973060;28;20043;-82
2022/08/22 17:39:34;;;;;;;13.23;11.02;;;;;;;;;;4992814;28;20058;-82
2022/08/22 17:42:39;;;;;;;13.07;11.63;;;;;;;;;;4992106;28;20042;-83
2022/08/22 17:45:41;;;;;;;13.73;10.95;;;;;;;;;;4991767;28;20582;-83
2022/08/22 17:48:44;;;;;;;12.63;10.88;;;;;;;;;;4970320;28;20042;-81
2022/08/22 17:51:56;;;;;;;14.15;10.30;;;;;;;;;;4982343;28;20046;-79
2022/08/22 17:54:51;;;;;;;11.52;10.30;;;;;;;;;;4985571;28;20050;-79